sensor_id;sensor_type;location;lat;lon;timestamp;P1;durP1;ratioP1;P2;durP2;ratioP2
11338;SDS011;5724;42.684;23.252;2023-02-28T00:00:32;21.27;;;17.73;;
11338;SDS011;5724;42.684;23.252;2023-02-28T00:02:58;21.17;;;17.87;;
11338;SDS011;5724;42.684;23.252;2023-02-28T00:05:24;19.90;;;15.87;;
11338;SDS011;5724;42.684;23.252;2023-02-28T00:07:50;18.53;;;16.63;;
11338;SDS011;5724;42.684;23.252;2023-02-28T00:10:18;19.33;;;16.43;;
11338;SDS011;5724;42.684;23.252;2023-02-28T00:12:52;21.07;;;17.20;;
11338;SDS011;5724;42.684;23.252;2023-02-28T00:15:19;18.50;;;16.07;;
11338;SDS011;5724;42.684;23.252;2023-02-28T00:17:45;18.80;;;16.77;;
11338;SDS011;5724;42.684;23.252;2023-02-28T00:20:11;18.00;;;16.07;;
11338;SDS011;5724;42.684;23.252;2023-02-28T00:22:41;17.37;;;15.53;;
11338;SDS011;5724;42.684;23.252;2023-02-28T00:25:08;16.87;;;15.23;;
11338;SDS011;5724;42.684;23.252;2023-02-28T00:27:35;16.00;;;14.40;;
11338;SDS011;5724;42.684;23.252;2023-02-28T00:30:02;16.80;;;14.57;;
11338;SDS011;5724;42.684;23.252;2023-02-28T00:32:28;16.83;;;15.17;;
11338;SDS011;5724;42.684;23.252;2023-02-28T00:34:53;18.43;;;14.67;;
11338;SDS011;5724;42.684;23.252;2023-02-28T00:37:19;16.27;;;14.17;;
11338;SDS011;5724;42.684;23.252;2023-02-28T00:39:44;16.63;;;14.83;;
11338;SDS011;5724;42.684;23.252;2023-02-28T00:42:10;19.37;;;15.67;;
11338;SDS011;5724;42.684;23.252;2023-02-28T00:44:35;17.10;;;15.40;;
11338;SDS011;5724;42.684;23.252;2023-02-28T00:47:01;24.47;;;18.93;;
11338;SDS011;5724;42.684;23.252;2023-02-28T00:49:26;22.87;;;19.70;;
11338;SDS011;5724;42.684;23.252;2023-02-28T00:51:53;24.87;;;20.90;;
11338;SDS011;5724;42.684;23.252;2023-02-28T00:54:19;24.93;;;21.40;;
11338;SDS011;5724;42.684;23.252;2023-02-28T00:56:46;30.40;;;24.10;;
11338;SDS011;5724;42.684;23.252;2023-02-28T00:59:12;31.37;;;24.07;;
11338;SDS011;5724;42.684;23.252;2023-02-28T01:01:38;35.00;;;26.50;;
11338;SDS011;5724;42.684;23.252;2023-02-28T01:04:04;52.27;;;28.30;;
11338;SDS011;5724;42.684;23.252;2023-02-28T01:06:30;38.93;;;28.87;;
11338;SDS011;5724;42.684;23.252;2023-02-28T01:08:56;36.53;;;26.50;;
11338;SDS011;5724;42.684;23.252;2023-02-28T01:11:22;32.23;;;25.53;;
11338;SDS011;5724;42.684;23.252;2023-02-28T01:13:47;34.40;;;24.20;;
11338;SDS011;5724;42.684;23.252;2023-02-28T01:16:13;32.33;;;23.40;;
11338;SDS011;5724;42.684;23.252;2023-02-28T01:18:39;47.17;;;30.93;;
11338;SDS011;5724;42.684;23.252;2023-02-28T01:21:09;35.80;;;24.90;;
11338;SDS011;5724;42.684;23.252;2023-02-28T01:23:37;72.57;;;26.00;;
11338;SDS011;5724;42.684;23.252;2023-02-28T01:26:24;81.77;;;25.63;;
11338;SDS011;5724;42.684;23.252;2023-02-28T01:28:49;143.27;;;27.47;;
11338;SDS011;5724;42.684;23.252;2023-02-28T01:31:16;53.13;;;25.27;;
11338;SDS011;5724;42.684;23.252;2023-02-28T01:33:43;150.03;;;29.43;;
11338;SDS011;5724;42.684;23.252;2023-02-28T01:36:14;48.77;;;25.57;;
11338;SDS011;5724;42.684;23.252;2023-02-28T01:38:41;45.10;;;24.23;;
11338;SDS011;5724;42.684;23.252;2023-02-28T01:41:08;46.93;;;24.93;;
11338;SDS011;5724;42.684;23.252;2023-02-28T01:46:08;34.27;;;22.53;;
11338;SDS011;5724;42.684;23.252;2023-02-28T01:48:36;40.50;;;22.60;;
11338;SDS011;5724;42.684;23.252;2023-02-28T01:51:08;33.13;;;22.40;;
11338;SDS011;5724;42.684;23.252;2023-02-28T01:53:44;50.43;;;23.73;;
11338;SDS011;5724;42.684;23.252;2023-02-28T01:56:13;39.03;;;24.20;;
11338;SDS011;5724;42.684;23.252;2023-02-28T01:58:49;42.33;;;24.67;;
11338;SDS011;5724;42.684;23.252;2023-02-28T02:01:16;64.33;;;25.77;;
11338;SDS011;5724;42.684;23.252;2023-02-28T02:04:00;45.77;;;26.70;;
11338;SDS011;5724;42.684;23.252;2023-02-28T02:06:31;72.97;;;26.17;;
11338;SDS011;5724;42.684;23.252;2023-02-28T02:09:01;64.87;;;27.70;;
11338;SDS011;5724;42.684;23.252;2023-02-28T02:11:27;89.43;;;26.53;;
11338;SDS011;5724;42.684;23.252;2023-02-28T02:24:39;52.43;;;27.83;;
11338;SDS011;5724;42.684;23.252;2023-02-28T02:27:38;52.30;;;27.70;;
11338;SDS011;5724;42.684;23.252;2023-02-28T02:30:21;126.93;;;29.57;;
11338;SDS011;5724;42.684;23.252;2023-02-28T02:35:54;61.10;;;26.47;;
11338;SDS011;5724;42.684;23.252;2023-02-28T02:40:56;58.17;;;29.23;;
11338;SDS011;5724;42.684;23.252;2023-02-28T02:44:00;325.87;;;35.17;;
11338;SDS011;5724;42.684;23.252;2023-02-28T02:46:29;250.77;;;35.13;;
11338;SDS011;5724;42.684;23.252;2023-02-28T02:48:59;312.63;;;34.90;;
11338;SDS011;5724;42.684;23.252;2023-02-28T02:51:28;214.73;;;33.43;;
11338;SDS011;5724;42.684;23.252;2023-02-28T02:54:00;173.57;;;34.57;;
11338;SDS011;5724;42.684;23.252;2023-02-28T02:56:31;91.80;;;31.13;;
11338;SDS011;5724;42.684;23.252;2023-02-28T02:59:00;130.30;;;29.23;;
11338;SDS011;5724;42.684;23.252;2023-02-28T03:01:29;52.33;;;25.73;;
11338;SDS011;5724;42.684;23.252;2023-02-28T03:03:57;42.73;;;24.67;;
11338;SDS011;5724;42.684;23.252;2023-02-28T03:06:26;41.30;;;22.83;;
11338;SDS011;5724;42.684;23.252;2023-02-28T03:08:52;43.83;;;23.60;;
11338;SDS011;5724;42.684;23.252;2023-02-28T03:11:18;71.07;;;25.43;;
11338;SDS011;5724;42.684;23.252;2023-02-28T03:19:02;95.20;;;27.03;;
11338;SDS011;5724;42.684;23.252;2023-02-28T03:21:34;181.50;;;26.07;;
11338;SDS011;5724;42.684;23.252;2023-02-28T03:24:10;170.37;;;27.27;;
11338;SDS011;5724;42.684;23.252;2023-02-28T03:26:43;45.77;;;23.27;;
11338;SDS011;5724;42.684;23.252;2023-02-28T03:29:28;37.50;;;23.17;;
11338;SDS011;5724;42.684;23.252;2023-02-28T03:32:14;32.50;;;21.50;;
11338;SDS011;5724;42.684;23.252;2023-02-28T03:35:12;34.27;;;22.27;;
11338;SDS011;5724;42.684;23.252;2023-02-28T03:37:47;37.43;;;23.60;;
11338;SDS011;5724;42.684;23.252;2023-02-28T03:40:22;39.50;;;23.40;;
11338;SDS011;5724;42.684;23.252;2023-02-28T03:42:52;55.10;;;24.73;;
11338;SDS011;5724;42.684;23.252;2023-02-28T03:45:24;45.03;;;25.07;;
11338;SDS011;5724;42.684;23.252;2023-02-28T03:51:01;55.63;;;28.27;;
11338;SDS011;5724;42.684;23.252;2023-02-28T03:53:38;58.27;;;28.27;;
11338;SDS011;5724;42.684;23.252;2023-02-28T03:56:12;71.47;;;28.67;;
11338;SDS011;5724;42.684;23.252;2023-02-28T03:58:54;50.17;;;27.20;;
11338;SDS011;5724;42.684;23.252;2023-02-28T04:01:34;51.67;;;27.73;;
11338;SDS011;5724;42.684;23.252;2023-02-28T04:04:00;54.60;;;28.83;;
11338;SDS011;5724;42.684;23.252;2023-02-28T04:06:27;85.60;;;29.80;;
11338;SDS011;5724;42.684;23.252;2023-02-28T04:08:55;67.57;;;30.50;;
11338;SDS011;5724;42.684;23.252;2023-02-28T04:11:27;139.30;;;33.57;;
11338;SDS011;5724;42.684;23.252;2023-02-28T04:13:54;106.10;;;33.40;;
11338;SDS011;5724;42.684;23.252;2023-02-28T04:16:20;118.13;;;29.07;;
11338;SDS011;5724;42.684;23.252;2023-02-28T04:18:46;92.70;;;29.43;;
11338;SDS011;5724;42.684;23.252;2023-02-28T04:21:12;75.00;;;27.70;;
11338;SDS011;5724;42.684;23.252;2023-02-28T04:23:37;59.27;;;27.50;;
11338;SDS011;5724;42.684;23.252;2023-02-28T04:26:03;145.43;;;32.33;;
11338;SDS011;5724;42.684;23.252;2023-02-28T04:28:30;92.93;;;32.20;;
11338;SDS011;5724;42.684;23.252;2023-02-28T04:31:00;75.77;;;33.47;;
11338;SDS011;5724;42.684;23.252;2023-02-28T04:33:29;75.90;;;35.60;;
11338;SDS011;5724;42.684;23.252;2023-02-28T04:35:59;108.27;;;34.43;;
11338;SDS011;5724;42.684;23.252;2023-02-28T04:38:33;121.37;;;34.57;;
11338;SDS011;5724;42.684;23.252;2023-02-28T04:41:00;150.30;;;35.03;;
11338;SDS011;5724;42.684;23.252;2023-02-28T04:43:26;96.87;;;33.17;;
11338;SDS011;5724;42.684;23.252;2023-02-28T04:45:53;93.73;;;34.83;;
11338;SDS011;5724;42.684;23.252;2023-02-28T04:48:24;72.43;;;34.03;;
11338;SDS011;5724;42.684;23.252;2023-02-28T04:50:51;113.47;;;33.30;;
11338;SDS011;5724;42.684;23.252;2023-02-28T04:53:17;102.83;;;33.07;;
11338;SDS011;5724;42.684;23.252;2023-02-28T04:55:43;135.20;;;37.40;;
11338;SDS011;5724;42.684;23.252;2023-02-28T04:58:09;65.63;;;33.33;;
11338;SDS011;5724;42.684;23.252;2023-02-28T05:00:35;71.70;;;33.00;;
11338;SDS011;5724;42.684;23.252;2023-02-28T05:03:00;70.53;;;32.63;;
11338;SDS011;5724;42.684;23.252;2023-02-28T05:05:26;82.07;;;32.23;;
11338;SDS011;5724;42.684;23.252;2023-02-28T05:07:51;82.77;;;33.67;;
11338;SDS011;5724;42.684;23.252;2023-02-28T05:10:18;97.97;;;31.67;;
11338;SDS011;5724;42.684;23.252;2023-02-28T05:12:44;117.20;;;33.33;;
11338;SDS011;5724;42.684;23.252;2023-02-28T05:15:12;105.10;;;33.70;;
11338;SDS011;5724;42.684;23.252;2023-02-28T05:17:39;72.10;;;32.87;;
11338;SDS011;5724;42.684;23.252;2023-02-28T05:20:04;105.23;;;34.40;;
11338;SDS011;5724;42.684;23.252;2023-02-28T05:22:31;90.73;;;34.63;;
11338;SDS011;5724;42.684;23.252;2023-02-28T05:24:57;105.53;;;32.17;;
11338;SDS011;5724;42.684;23.252;2023-02-28T05:27:22;63.23;;;33.10;;
11338;SDS011;5724;42.684;23.252;2023-02-28T05:29:48;101.60;;;34.10;;
11338;SDS011;5724;42.684;23.252;2023-02-28T05:32:14;61.13;;;31.57;;
11338;SDS011;5724;42.684;23.252;2023-02-28T05:34:40;106.53;;;33.57;;
11338;SDS011;5724;42.684;23.252;2023-02-28T05:37:10;67.03;;;31.70;;
11338;SDS011;5724;42.684;23.252;2023-02-28T05:39:38;44.70;;;25.83;;
11338;SDS011;5724;42.684;23.252;2023-02-28T05:42:03;67.60;;;34.63;;
11338;SDS011;5724;42.684;23.252;2023-02-28T05:44:29;91.07;;;35.97;;
11338;SDS011;5724;42.684;23.252;2023-02-28T05:46:55;64.07;;;33.17;;
11338;SDS011;5724;42.684;23.252;2023-02-28T05:49:20;72.53;;;31.67;;
11338;SDS011;5724;42.684;23.252;2023-02-28T05:51:46;109.57;;;34.70;;
11338;SDS011;5724;42.684;23.252;2023-02-28T05:54:11;83.80;;;34.60;;
11338;SDS011;5724;42.684;23.252;2023-02-28T05:56:37;68.50;;;32.70;;
11338;SDS011;5724;42.684;23.252;2023-02-28T05:59:05;70.10;;;34.17;;
11338;SDS011;5724;42.684;23.252;2023-02-28T06:04:01;73.43;;;34.57;;
11338;SDS011;5724;42.684;23.252;2023-02-28T06:06:27;62.40;;;34.20;;
11338;SDS011;5724;42.684;23.252;2023-02-28T06:08:54;70.93;;;33.63;;
11338;SDS011;5724;42.684;23.252;2023-02-28T06:11:20;64.17;;;33.53;;
11338;SDS011;5724;42.684;23.252;2023-02-28T06:13:46;63.87;;;34.60;;
11338;SDS011;5724;42.684;23.252;2023-02-28T06:16:12;73.63;;;42.37;;
11338;SDS011;5724;42.684;23.252;2023-02-28T06:18:37;65.10;;;34.53;;
11338;SDS011;5724;42.684;23.252;2023-02-28T06:21:03;64.80;;;35.07;;
11338;SDS011;5724;42.684;23.252;2023-02-28T06:23:29;58.77;;;33.33;;
11338;SDS011;5724;42.684;23.252;2023-02-28T06:25:55;63.37;;;34.23;;
11338;SDS011;5724;42.684;23.252;2023-02-28T06:28:24;57.97;;;31.97;;
11338;SDS011;5724;42.684;23.252;2023-02-28T06:30:51;61.67;;;33.43;;
11338;SDS011;5724;42.684;23.252;2023-02-28T06:33:16;56.67;;;32.00;;
11338;SDS011;5724;42.684;23.252;2023-02-28T06:35:46;60.50;;;34.00;;
11338;SDS011;5724;42.684;23.252;2023-02-28T06:38:14;61.17;;;32.40;;
11338;SDS011;5724;42.684;23.252;2023-02-28T06:40:40;70.27;;;32.10;;
11338;SDS011;5724;42.684;23.252;2023-02-28T06:43:06;80.07;;;30.53;;
11338;SDS011;5724;42.684;23.252;2023-02-28T06:45:32;95.83;;;32.07;;
11338;SDS011;5724;42.684;23.252;2023-02-28T06:47:57;66.10;;;31.73;;
11338;SDS011;5724;42.684;23.252;2023-02-28T06:50:23;62.73;;;32.03;;
11338;SDS011;5724;42.684;23.252;2023-02-28T06:52:48;65.47;;;31.40;;
11338;SDS011;5724;42.684;23.252;2023-02-28T06:55:18;59.87;;;33.13;;
11338;SDS011;5724;42.684;23.252;2023-02-28T06:57:44;61.93;;;31.93;;
11338;SDS011;5724;42.684;23.252;2023-02-28T07:00:10;67.87;;;32.90;;
11338;SDS011;5724;42.684;23.252;2023-02-28T07:02:36;57.13;;;32.67;;
11338;SDS011;5724;42.684;23.252;2023-02-28T07:05:03;62.57;;;34.23;;
11338;SDS011;5724;42.684;23.252;2023-02-28T07:07:29;70.50;;;36.17;;
11338;SDS011;5724;42.684;23.252;2023-02-28T07:09:54;65.90;;;36.33;;
11338;SDS011;5724;42.684;23.252;2023-02-28T07:12:20;73.03;;;36.50;;
11338;SDS011;5724;42.684;23.252;2023-02-28T07:14:46;62.57;;;33.30;;
11338;SDS011;5724;42.684;23.252;2023-02-28T07:17:11;75.97;;;35.00;;
11338;SDS011;5724;42.684;23.252;2023-02-28T07:19:37;64.17;;;33.53;;
11338;SDS011;5724;42.684;23.252;2023-02-28T07:22:04;64.70;;;34.07;;
11338;SDS011;5724;42.684;23.252;2023-02-28T07:24:30;72.13;;;31.83;;
11338;SDS011;5724;42.684;23.252;2023-02-28T07:26:56;61.20;;;33.27;;
11338;SDS011;5724;42.684;23.252;2023-02-28T07:29:21;63.87;;;34.80;;
11338;SDS011;5724;42.684;23.252;2023-02-28T07:31:47;67.70;;;36.37;;
11338;SDS011;5724;42.684;23.252;2023-02-28T07:34:13;78.20;;;34.57;;
11338;SDS011;5724;42.684;23.252;2023-02-28T07:36:39;65.17;;;34.97;;
11338;SDS011;5724;42.684;23.252;2023-02-28T07:39:04;93.40;;;37.43;;
11338;SDS011;5724;42.684;23.252;2023-02-28T07:41:30;69.17;;;34.57;;
11338;SDS011;5724;42.684;23.252;2023-02-28T07:43:58;62.07;;;34.80;;
11338;SDS011;5724;42.684;23.252;2023-02-28T07:46:24;69.43;;;34.20;;
11338;SDS011;5724;42.684;23.252;2023-02-28T07:48:51;72.10;;;34.20;;
11338;SDS011;5724;42.684;23.252;2023-02-28T07:51:18;68.00;;;34.33;;
11338;SDS011;5724;42.684;23.252;2023-02-28T07:53:43;65.80;;;33.67;;
11338;SDS011;5724;42.684;23.252;2023-02-28T07:56:09;71.20;;;35.00;;
11338;SDS011;5724;42.684;23.252;2023-02-28T07:58:36;78.07;;;34.87;;
11338;SDS011;5724;42.684;23.252;2023-02-28T08:01:08;65.70;;;35.70;;
11338;SDS011;5724;42.684;23.252;2023-02-28T08:03:35;57.53;;;31.00;;
11338;SDS011;5724;42.684;23.252;2023-02-28T08:06:02;66.10;;;32.83;;
11338;SDS011;5724;42.684;23.252;2023-02-28T08:08:29;72.53;;;37.23;;
11338;SDS011;5724;42.684;23.252;2023-02-28T08:10:59;68.13;;;34.53;;
11338;SDS011;5724;42.684;23.252;2023-02-28T08:13:26;65.93;;;35.87;;
11338;SDS011;5724;42.684;23.252;2023-02-28T08:15:53;69.20;;;33.90;;
11338;SDS011;5724;42.684;23.252;2023-02-28T08:18:20;68.87;;;34.80;;
11338;SDS011;5724;42.684;23.252;2023-02-28T08:20:46;62.40;;;34.63;;
11338;SDS011;5724;42.684;23.252;2023-02-28T08:23:11;60.77;;;34.17;;
11338;SDS011;5724;42.684;23.252;2023-02-28T08:25:36;69.43;;;34.83;;
11338;SDS011;5724;42.684;23.252;2023-02-28T08:28:02;73.03;;;36.83;;
11338;SDS011;5724;42.684;23.252;2023-02-28T08:30:28;58.43;;;35.10;;
11338;SDS011;5724;42.684;23.252;2023-02-28T08:32:53;69.57;;;36.30;;
11338;SDS011;5724;42.684;23.252;2023-02-28T08:35:20;60.47;;;34.70;;
11338;SDS011;5724;42.684;23.252;2023-02-28T08:37:47;66.03;;;35.60;;
11338;SDS011;5724;42.684;23.252;2023-02-28T08:40:13;66.13;;;37.07;;
11338;SDS011;5724;42.684;23.252;2023-02-28T08:42:43;76.77;;;36.63;;
11338;SDS011;5724;42.684;23.252;2023-02-28T08:45:10;66.77;;;35.23;;
11338;SDS011;5724;42.684;23.252;2023-02-28T08:47:36;69.90;;;35.17;;
11338;SDS011;5724;42.684;23.252;2023-02-28T08:50:02;73.87;;;37.00;;
11338;SDS011;5724;42.684;23.252;2023-02-28T08:52:28;68.70;;;37.57;;
11338;SDS011;5724;42.684;23.252;2023-02-28T08:54:54;62.50;;;35.90;;
11338;SDS011;5724;42.684;23.252;2023-02-28T08:57:19;63.53;;;35.20;;
11338;SDS011;5724;42.684;23.252;2023-02-28T08:59:45;72.60;;;37.13;;
11338;SDS011;5724;42.684;23.252;2023-02-28T09:02:12;67.30;;;36.77;;
11338;SDS011;5724;42.684;23.252;2023-02-28T09:04:39;65.97;;;35.93;;
11338;SDS011;5724;42.684;23.252;2023-02-28T09:07:05;67.30;;;35.40;;
11338;SDS011;5724;42.684;23.252;2023-02-28T09:09:30;55.93;;;33.23;;
11338;SDS011;5724;42.684;23.252;2023-02-28T09:11:56;59.80;;;34.80;;
11338;SDS011;5724;42.684;23.252;2023-02-28T09:14:22;61.97;;;34.80;;
11338;SDS011;5724;42.684;23.252;2023-02-28T09:16:48;64.27;;;34.60;;
11338;SDS011;5724;42.684;23.252;2023-02-28T09:19:13;65.07;;;36.73;;
11338;SDS011;5724;42.684;23.252;2023-02-28T09:21:39;59.07;;;35.23;;
11338;SDS011;5724;42.684;23.252;2023-02-28T09:24:04;65.77;;;34.87;;
11338;SDS011;5724;42.684;23.252;2023-02-28T09:26:30;60.80;;;34.63;;
11338;SDS011;5724;42.684;23.252;2023-02-28T09:28:55;62.93;;;36.80;;
11338;SDS011;5724;42.684;23.252;2023-02-28T09:31:24;63.10;;;35.53;;
11338;SDS011;5724;42.684;23.252;2023-02-28T09:33:52;61.67;;;35.43;;
11338;SDS011;5724;42.684;23.252;2023-02-28T09:36:20;55.87;;;34.53;;
11338;SDS011;5724;42.684;23.252;2023-02-28T09:38:46;58.47;;;35.93;;
11338;SDS011;5724;42.684;23.252;2023-02-28T09:43:55;58.33;;;35.93;;
11338;SDS011;5724;42.684;23.252;2023-02-28T09:46:32;66.23;;;37.10;;
11338;SDS011;5724;42.684;23.252;2023-02-28T09:49:02;66.77;;;38.37;;
11338;SDS011;5724;42.684;23.252;2023-02-28T09:51:37;68.97;;;38.73;;
11338;SDS011;5724;42.684;23.252;2023-02-28T09:54:11;60.43;;;38.20;;
11338;SDS011;5724;42.684;23.252;2023-02-28T09:56:44;66.43;;;37.97;;
11338;SDS011;5724;42.684;23.252;2023-02-28T10:09:47;62.57;;;37.43;;
11338;SDS011;5724;42.684;23.252;2023-02-28T10:12:18;63.87;;;37.23;;
11338;SDS011;5724;42.684;23.252;2023-02-28T10:14:45;57.83;;;35.80;;
11338;SDS011;5724;42.684;23.252;2023-02-28T10:17:15;51.40;;;35.83;;
11338;SDS011;5724;42.684;23.252;2023-02-28T10:26:19;58.53;;;34.83;;
11338;SDS011;5724;42.684;23.252;2023-02-28T10:28:38;47.53;;;34.60;;
11338;SDS011;5724;42.684;23.252;2023-02-28T10:31:04;47.35;;;34.38;;
11338;SDS011;5724;42.684;23.252;2023-02-28T10:33:31;53.95;;;35.28;;
11338;SDS011;5724;42.684;23.252;2023-02-28T10:35:59;53.20;;;36.88;;
11338;SDS011;5724;42.684;23.252;2023-02-28T10:38:27;51.45;;;35.95;;
11338;SDS011;5724;42.684;23.252;2023-02-28T10:41:03;48.65;;;32.53;;
11338;SDS011;5724;42.684;23.252;2023-02-28T10:43:42;45.90;;;33.35;;
11338;SDS011;5724;42.684;23.252;2023-02-28T10:48:45;44.33;;;30.20;;
11338;SDS011;5724;42.684;23.252;2023-02-28T10:51:22;47.15;;;31.63;;
11338;SDS011;5724;42.684;23.252;2023-02-28T10:53:49;37.63;;;27.38;;
11338;SDS011;5724;42.684;23.252;2023-02-28T10:56:19;37.78;;;25.92;;
11338;SDS011;5724;42.684;23.252;2023-02-28T10:58:55;31.58;;;24.13;;
11338;SDS011;5724;42.684;23.252;2023-02-28T11:03:57;22.75;;;16.15;;
11338;SDS011;5724;42.684;23.252;2023-02-28T11:06:25;18.95;;;15.13;;
11338;SDS011;5724;42.684;23.252;2023-02-28T11:08:56;20.42;;;12.80;;
11338;SDS011;5724;42.684;23.252;2023-02-28T11:11:28;20.55;;;12.57;;
11338;SDS011;5724;42.684;23.252;2023-02-28T11:13:57;19.17;;;12.73;;
11338;SDS011;5724;42.684;23.252;2023-02-28T11:16:34;20.85;;;12.85;;
11338;SDS011;5724;42.684;23.252;2023-02-28T11:19:02;19.17;;;11.85;;
11338;SDS011;5724;42.684;23.252;2023-02-28T11:21:33;21.75;;;12.27;;
11338;SDS011;5724;42.684;23.252;2023-02-28T11:26:46;24.20;;;12.48;;
11338;SDS011;5724;42.684;23.252;2023-02-28T11:29:18;19.77;;;11.40;;
11338;SDS011;5724;42.684;23.252;2023-02-28T11:34:36;19.35;;;12.68;;
11338;SDS011;5724;42.684;23.252;2023-02-28T11:37:03;22.20;;;16.27;;
11338;SDS011;5724;42.684;23.252;2023-02-28T11:39:30;19.67;;;13.43;;
11338;SDS011;5724;42.684;23.252;2023-02-28T11:53:03;22.27;;;12.13;;
11338;SDS011;5724;42.684;23.252;2023-02-28T11:55:37;15.70;;;12.93;;
11338;SDS011;5724;42.684;23.252;2023-02-28T12:03:28;19.45;;;13.20;;
11338;SDS011;5724;42.684;23.252;2023-02-28T12:09:12;28.88;;;13.63;;
11338;SDS011;5724;42.684;23.252;2023-02-28T12:11:52;21.95;;;12.85;;
11338;SDS011;5724;42.684;23.252;2023-02-28T12:17:14;22.10;;;14.35;;
11338;SDS011;5724;42.684;23.252;2023-02-28T12:22:29;25.13;;;13.82;;
11338;SDS011;5724;42.684;23.252;2023-02-28T12:27:31;19.38;;;13.45;;
11338;SDS011;5724;42.684;23.252;2023-02-28T12:32:45;21.98;;;13.68;;
11338;SDS011;5724;42.684;23.252;2023-02-28T12:35:19;27.50;;;15.10;;
11338;SDS011;5724;42.684;23.252;2023-02-28T12:37:52;19.13;;;13.90;;
11338;SDS011;5724;42.684;23.252;2023-02-28T12:40:23;22.33;;;14.10;;
11338;SDS011;5724;42.684;23.252;2023-02-28T12:42:53;16.83;;;13.50;;
11338;SDS011;5724;42.684;23.252;2023-02-28T12:45:24;19.38;;;13.02;;
11338;SDS011;5724;42.684;23.252;2023-02-28T12:47:57;18.27;;;13.20;;
11338;SDS011;5724;42.684;23.252;2023-02-28T12:50:27;24.90;;;12.93;;
11338;SDS011;5724;42.684;23.252;2023-02-28T12:55:49;17.33;;;13.35;;
11338;SDS011;5724;42.684;23.252;2023-02-28T13:09:35;19.92;;;12.43;;
11338;SDS011;5724;42.684;23.252;2023-02-28T13:12:04;20.92;;;12.82;;
11338;SDS011;5724;42.684;23.252;2023-02-28T13:14:38;23.73;;;12.30;;
11338;SDS011;5724;42.684;23.252;2023-02-28T13:19:33;23.70;;;11.50;;
11338;SDS011;5724;42.684;23.252;2023-02-28T13:22:01;18.77;;;11.50;;
11338;SDS011;5724;42.684;23.252;2023-02-28T13:24:37;18.35;;;11.77;;
11338;SDS011;5724;42.684;23.252;2023-02-28T13:29:38;17.83;;;12.20;;
11338;SDS011;5724;42.684;23.252;2023-02-28T13:34:36;18.73;;;12.32;;
11338;SDS011;5724;42.684;23.252;2023-02-28T13:39:58;18.23;;;12.32;;
11338;SDS011;5724;42.684;23.252;2023-02-28T13:42:51;15.23;;;11.40;;
11338;SDS011;5724;42.684;23.252;2023-02-28T13:50:34;16.20;;;12.32;;
11338;SDS011;5724;42.684;23.252;2023-02-28T14:03:56;16.50;;;9.95;;
11338;SDS011;5724;42.684;23.252;2023-02-28T14:11:34;20.40;;;11.80;;
11338;SDS011;5724;42.684;23.252;2023-02-28T14:14:03;24.95;;;11.48;;
11338;SDS011;5724;42.684;23.252;2023-02-28T14:16:40;14.43;;;10.60;;
11338;SDS011;5724;42.684;23.252;2023-02-28T14:21:51;17.20;;;11.07;;
11338;SDS011;5724;42.684;23.252;2023-02-28T14:32:13;18.75;;;10.77;;
11338;SDS011;5724;42.684;23.252;2023-02-28T14:34:51;17.85;;;10.48;;
11338;SDS011;5724;42.684;23.252;2023-02-28T14:37:43;18.38;;;10.80;;
11338;SDS011;5724;42.684;23.252;2023-02-28T14:40:14;23.23;;;10.90;;
11338;SDS011;5724;42.684;23.252;2023-02-28T14:42:45;16.67;;;11.20;;
11338;SDS011;5724;42.684;23.252;2023-02-28T14:45:20;17.92;;;11.30;;
11338;SDS011;5724;42.684;23.252;2023-02-28T14:47:46;18.50;;;11.10;;
11338;SDS011;5724;42.684;23.252;2023-02-28T14:50:17;14.82;;;10.52;;
11338;SDS011;5724;42.684;23.252;2023-02-28T14:52:52;16.95;;;10.60;;
11338;SDS011;5724;42.684;23.252;2023-02-28T14:55:22;17.40;;;9.98;;
11338;SDS011;5724;42.684;23.252;2023-02-28T14:57:53;17.27;;;10.23;;
11338;SDS011;5724;42.684;23.252;2023-02-28T15:00:27;17.40;;;11.57;;
11338;SDS011;5724;42.684;23.252;2023-02-28T15:02:58;16.95;;;10.93;;
11338;SDS011;5724;42.684;23.252;2023-02-28T15:05:31;14.93;;;10.85;;
11338;SDS011;5724;42.684;23.252;2023-02-28T15:08:11;17.30;;;9.75;;
11338;SDS011;5724;42.684;23.252;2023-02-28T15:10:40;22.17;;;9.52;;
11338;SDS011;5724;42.684;23.252;2023-02-28T15:13:13;15.25;;;10.18;;
11338;SDS011;5724;42.684;23.252;2023-02-28T15:18:14;23.15;;;10.63;;
11338;SDS011;5724;42.684;23.252;2023-02-28T15:21:02;25.85;;;15.38;;
11338;SDS011;5724;42.684;23.252;2023-02-28T15:23:31;23.33;;;10.75;;
11338;SDS011;5724;42.684;23.252;2023-02-28T15:25:59;19.17;;;12.10;;
11338;SDS011;5724;42.684;23.252;2023-02-28T15:28:25;16.75;;;10.05;;
11338;SDS011;5724;42.684;23.252;2023-02-28T15:30:55;18.30;;;9.80;;
11338;SDS011;5724;42.684;23.252;2023-02-28T15:33:24;16.20;;;9.93;;
11338;SDS011;5724;42.684;23.252;2023-02-28T15:35:51;15.30;;;10.25;;
11338;SDS011;5724;42.684;23.252;2023-02-28T15:38:29;14.82;;;10.07;;
11338;SDS011;5724;42.684;23.252;2023-02-28T15:41:00;15.70;;;9.45;;
11338;SDS011;5724;42.684;23.252;2023-02-28T15:43:31;16.50;;;8.57;;
11338;SDS011;5724;42.684;23.252;2023-02-28T15:48:30;13.07;;;9.05;;
11338;SDS011;5724;42.684;23.252;2023-02-28T15:51:09;12.10;;;9.38;;
11338;SDS011;5724;42.684;23.252;2023-02-28T15:53:47;14.38;;;9.88;;
11338;SDS011;5724;42.684;23.252;2023-02-28T15:57:03;22.77;;;10.40;;
11338;SDS011;5724;42.684;23.252;2023-02-28T15:59:14;13.35;;;9.85;;
11338;SDS011;5724;42.684;23.252;2023-02-28T16:01:43;18.40;;;10.17;;
11338;SDS011;5724;42.684;23.252;2023-02-28T16:07:01;15.15;;;9.68;;
11338;SDS011;5724;42.684;23.252;2023-02-28T16:09:25;14.17;;;9.07;;
11338;SDS011;5724;42.684;23.252;2023-02-28T16:11:52;10.63;;;8.77;;
11338;SDS011;5724;42.684;23.252;2023-02-28T16:14:20;10.37;;;8.70;;
11338;SDS011;5724;42.684;23.252;2023-02-28T16:16:51;10.43;;;9.40;;
11338;SDS011;5724;42.684;23.252;2023-02-28T16:19:19;12.87;;;10.77;;
11338;SDS011;5724;42.684;23.252;2023-02-28T16:21:45;17.52;;;13.18;;
11338;SDS011;5724;42.684;23.252;2023-02-28T16:24:11;15.03;;;13.43;;
11338;SDS011;5724;42.684;23.252;2023-02-28T16:26:37;20.57;;;14.83;;
11338;SDS011;5724;42.684;23.252;2023-02-28T16:29:06;14.97;;;13.37;;
11338;SDS011;5724;42.684;23.252;2023-02-28T16:31:34;13.02;;;11.82;;
11338;SDS011;5724;42.684;23.252;2023-02-28T16:34:03;10.97;;;10.03;;
11338;SDS011;5724;42.684;23.252;2023-02-28T16:36:29;11.88;;;10.25;;
11338;SDS011;5724;42.684;23.252;2023-02-28T16:38:55;11.00;;;9.70;;
11338;SDS011;5724;42.684;23.252;2023-02-28T16:41:22;13.83;;;12.30;;
11338;SDS011;5724;42.684;23.252;2023-02-28T16:43:51;11.97;;;10.77;;
11338;SDS011;5724;42.684;23.252;2023-02-28T16:46:18;10.50;;;9.43;;
11338;SDS011;5724;42.684;23.252;2023-02-28T16:48:46;12.03;;;8.50;;
11338;SDS011;5724;42.684;23.252;2023-02-28T16:51:16;9.27;;;8.30;;
11338;SDS011;5724;42.684;23.252;2023-02-28T16:53:43;9.37;;;8.47;;
11338;SDS011;5724;42.684;23.252;2023-02-28T16:56:18;9.20;;;8.40;;
11338;SDS011;5724;42.684;23.252;2023-02-28T16:58:46;9.73;;;8.07;;
11338;SDS011;5724;42.684;23.252;2023-02-28T17:01:13;10.30;;;8.63;;
11338;SDS011;5724;42.684;23.252;2023-02-28T17:03:39;9.53;;;8.53;;
11338;SDS011;5724;42.684;23.252;2023-02-28T17:06:05;8.43;;;7.73;;